createdAt,value
2022-12-26T00:01:28.866Z,101714.16
2022-12-26T00:03:58.055Z,101702.53
2022-12-26T00:06:28.494Z,101718.81
2022-12-26T00:08:58.103Z,101716.25
2022-12-26T00:11:29.869Z,101713.56
2022-12-26T00:14:00.097Z,101717.09
2022-12-26T00:16:29.400Z,101706.22
2022-12-26T00:18:57.796Z,101702.00
2022-12-26T00:21:29.273Z,101710.31
2022-12-26T00:23:59.764Z,101563.75
2022-12-26T00:26:30.937Z,101698.16
2022-12-26T00:28:59.689Z,101699.97
2022-12-26T00:31:30.986Z,101589.63
2022-12-26T00:33:59.570Z,101691.78
2022-12-26T00:36:29.915Z,101697.28
2022-12-26T00:38:59.780Z,101685.56
2022-12-26T00:41:30.318Z,101687.13
2022-12-26T00:43:59.329Z,101696.88
2022-12-26T00:46:28.722Z,101699.44
2022-12-26T00:48:58.135Z,101701.53
2022-12-26T00:51:26.464Z,101699.81
2022-12-26T00:53:55.031Z,101668.72
2022-12-26T00:56:24.349Z,101689.09
2022-12-26T00:58:54.151Z,101694.31
2022-12-26T01:01:24.552Z,101672.78
2022-12-26T01:03:53.428Z,101712.53
2022-12-26T01:06:21.830Z,101705.31
2022-12-26T01:08:51.419Z,101703.50
2022-12-26T01:11:40.487Z,101707.16
2022-12-26T01:14:13.007Z,101685.50
2022-12-26T01:16:42.353Z,101708.28
2022-12-26T01:19:12.086Z,101704.28
2022-12-26T01:21:41.054Z,101704.59
2022-12-26T01:24:09.473Z,101706.19
2022-12-26T01:26:37.967Z,101707.16
2022-12-26T01:29:06.296Z,101715.91
2022-12-26T01:31:36.284Z,101713.38
2022-12-26T01:34:04.768Z,101720.44
2022-12-26T01:36:33.234Z,101722.13
2022-12-26T01:39:01.566Z,101725.66
2022-12-26T01:41:30.539Z,101716.78
2022-12-26T01:44:00.946Z,101720.16
2022-12-26T01:46:33.964Z,101721.16
2022-12-26T01:49:10.521Z,101733.00
2022-12-26T01:51:42.437Z,101696.06
2022-12-26T01:54:39.562Z,101736.53
2022-12-26T01:57:11.483Z,101701.13
2022-12-26T01:59:42.770Z,101737.06
2022-12-26T02:02:12.902Z,101737.91
2022-12-26T02:05:06.198Z,101741.72
2022-12-26T02:07:36.296Z,101742.97
2022-12-26T02:10:05.498Z,101741.53
2022-12-26T02:12:38.807Z,101725.53
2022-12-26T02:15:12.447Z,101750.03
2022-12-26T02:17:42.195Z,101757.09
2022-12-26T02:20:19.912Z,101729.91
2022-12-26T02:23:25.553Z,101753.94
2022-12-26T02:26:26.577Z,101754.50
2022-12-26T02:29:39.109Z,101769.75
2022-12-26T02:32:16.488Z,101774.97
2022-12-26T02:34:57.080Z,101766.38
2022-12-26T02:37:37.038Z,101745.28
2022-12-26T02:40:27.691Z,101758.31
2022-12-26T02:43:00.513Z,101724.34
2022-12-26T02:46:05.916Z,101649.72
2022-12-26T02:48:46.788Z,101611.81
2022-12-26T02:51:41.005Z,101750.41
2022-12-26T02:54:49.062Z,101746.31
2022-12-26T02:57:40.627Z,101678.84
2022-12-26T03:00:33.110Z,101710.75
2022-12-26T03:03:21.591Z,101756.75
2022-12-26T03:06:15.027Z,101755.78
2022-12-26T03:09:07.422Z,101751.97
2022-12-26T03:11:58.409Z,101767.78
2022-12-26T03:14:30.223Z,101765.22
2022-12-26T03:17:20.132Z,101757.63
2022-12-26T03:20:03.071Z,101762.84
2022-12-26T03:22:41.020Z,101770.63
2022-12-26T03:25:33.593Z,101733.31
2022-12-26T03:28:02.079Z,101772.91
2022-12-26T03:30:49.263Z,101770.94
2022-12-26T03:33:35.933Z,101754.28
2022-12-26T03:36:05.971Z,101764.22
2022-12-26T03:38:51.530Z,101734.44
2022-12-26T03:41:45.612Z,101756.69
2022-12-26T03:44:53.305Z,101757.81
2022-12-26T03:47:45.897Z,101759.78
2022-12-26T03:50:41.336Z,101656.25
2022-12-26T03:53:33.478Z,101732.59
2022-12-26T03:56:27.074Z,101752.56
2022-12-26T03:59:20.196Z,101749.03
2022-12-26T04:02:04.437Z,101725.53
2022-12-26T04:04:54.226Z,101747.94
2022-12-26T04:07:56.568Z,101726.25
2022-12-26T04:10:49.912Z,101740.28
2022-12-26T04:13:42.142Z,101721.75
2022-12-26T04:16:34.673Z,101747.78
2022-12-26T04:19:26.362Z,101744.97
2022-12-26T04:22:21.548Z,101744.84
2022-12-26T04:25:15.400Z,101735.09
2022-12-26T04:28:01.410Z,101737.91
2022-12-26T04:30:53.859Z,101710.75
2022-12-26T04:33:46.281Z,101721.19
2022-12-26T04:36:36.693Z,101738.19
2022-12-26T04:39:26.363Z,101739.28
2022-12-26T04:42:15.077Z,101727.72
2022-12-26T04:44:45.464Z,101728.56
2022-12-26T04:47:15.296Z,101729.53
2022-12-26T04:50:02.333Z,101730.53
2022-12-26T04:52:51.535Z,101738.44
2022-12-26T04:55:20.847Z,101744.66
2022-12-26T04:57:49.235Z,101747.34
2022-12-26T05:00:18.478Z,101746.34
2022-12-26T05:03:05.704Z,101746.34
2022-12-26T05:06:06.223Z,101751.97
2022-12-26T05:08:55.375Z,101742.38
2022-12-26T05:11:25.563Z,101750.84
2022-12-26T05:13:54.474Z,101757.63
2022-12-26T05:16:40.712Z,101769.06
2022-12-26T05:19:38.334Z,101774.41
2022-12-26T05:22:24.695Z,101774.56
2022-12-26T05:25:11.183Z,101774.41
2022-12-26T05:28:00.923Z,101759.53
2022-12-26T05:30:29.704Z,101785.47
2022-12-26T05:33:15.451Z,101777.03
2022-12-26T05:35:45.436Z,101783.13
2022-12-26T05:38:14.999Z,101784.69
2022-12-26T05:40:43.452Z,101788.34
2022-12-26T05:43:12.576Z,101789.06
2022-12-26T05:45:40.912Z,101799.81
2022-12-26T05:48:09.314Z,101798.69
2022-12-26T05:50:37.793Z,101796.84
2022-12-26T05:53:07.684Z,101805.75
2022-12-26T05:55:36.120Z,101802.94
2022-12-26T05:58:04.552Z,101808.16
2022-12-26T06:00:33.385Z,101800.94
2022-12-26T06:03:02.314Z,101754.22
2022-12-26T06:05:30.830Z,101803.22
2022-12-26T06:07:59.216Z,101807.88
2022-12-26T06:10:29.876Z,101806.06
2022-12-26T06:12:58.267Z,101802.38
2022-12-26T06:15:26.684Z,101805.78
2022-12-26T06:17:56.682Z,101693.38
2022-12-26T06:20:25.096Z,101809.44
2022-12-26T06:22:53.459Z,101816.66
2022-12-26T06:25:21.858Z,101812.00
2022-12-26T06:27:51.618Z,101812.00
2022-12-26T06:30:20.080Z,101826.41
2022-12-26T06:32:48.562Z,101834.59
2022-12-26T06:35:17.197Z,101837.25
2022-12-26T06:37:45.620Z,101840.06
2022-12-26T06:40:14.670Z,101840.94
2022-12-26T06:42:43.117Z,101842.63
2022-12-26T06:45:13.283Z,101837.13
2022-12-26T06:47:41.759Z,101841.66
2022-12-26T06:50:11.147Z,101843.34
2022-12-26T06:52:39.678Z,101848.59
2022-12-26T06:55:08.769Z,101844.91
2022-12-26T06:57:37.168Z,101853.69
2022-12-26T07:00:06.400Z,101853.56
2022-12-26T07:02:36.258Z,101865.16
2022-12-26T07:05:05.368Z,101863.44
2022-12-26T07:07:33.780Z,101864.44
2022-12-26T07:10:02.087Z,101869.94
2022-12-26T07:12:31.493Z,101862.72
2022-12-26T07:15:01.908Z,101865.41
2022-12-26T07:17:31.572Z,101854.94
2022-12-26T07:20:01.346Z,101876.13
2022-12-26T07:22:30.383Z,101868.09
2022-12-26T07:24:58.728Z,101875.88
2022-12-26T07:27:27.175Z,101868.56
2022-12-26T07:29:55.533Z,101879.16
2022-12-26T07:32:24.956Z,101884.38
2022-12-26T07:34:53.410Z,101878.75
2022-12-26T07:37:23.244Z,101882.16
2022-12-26T07:39:56.928Z,101885.56
2022-12-26T07:42:27.713Z,101880.88
2022-12-26T07:44:56.174Z,101889.66
2022-12-26T07:47:24.662Z,101895.88
2022-12-26T07:49:54.175Z,101895.03
2022-12-26T07:52:24.044Z,101894.03
2022-12-26T07:54:53.399Z,101906.63
2022-12-26T07:57:47.384Z,101908.44
2022-12-26T08:00:11.920Z,101917.47
2022-12-26T08:02:43.401Z,101919.31
2022-12-26T08:05:11.894Z,101922.00
2022-12-26T08:07:41.853Z,101921.88
2022-12-26T08:10:10.742Z,101921.47
2022-12-26T08:12:39.789Z,101923.63
2022-12-26T08:15:10.138Z,101927.63
2022-12-26T08:17:38.572Z,101933.00
2022-12-26T08:20:08.041Z,101931.75
2022-12-26T08:22:36.466Z,101933.47
2022-12-26T08:25:07.744Z,101936.13
2022-12-26T08:27:36.292Z,101941.38
2022-12-26T08:30:05.517Z,101913.03
2022-12-26T08:32:33.995Z,101951.31
2022-12-26T08:35:03.366Z,101948.34
2022-12-26T08:37:31.823Z,101949.06
2022-12-26T08:40:00.157Z,101956.88
2022-12-26T08:42:30.730Z,101957.72
2022-12-26T08:44:59.115Z,101967.47
2022-12-26T08:47:27.688Z,101965.28
2022-12-26T08:49:56.067Z,101970.38
2022-12-26T08:52:24.717Z,101975.03
2022-12-26T08:54:53.085Z,101980.16
2022-12-26T08:57:21.473Z,101982.41
2022-12-26T08:59:52.360Z,101989.22
2022-12-26T09:02:20.798Z,101996.28
2022-12-26T09:04:49.352Z,101989.94
2022-12-26T09:07:17.784Z,101993.19
2022-12-26T09:09:47.561Z,101991.94
2022-12-26T09:12:15.922Z,101992.25
2022-12-26T09:14:45.313Z,101997.94
2022-12-26T09:17:15.335Z,101994.97
2022-12-26T09:19:43.868Z,102001.91
2022-12-26T09:22:33.552Z,101999.81
2022-12-26T09:25:03.757Z,102003.34
2022-12-26T09:27:32.107Z,102005.03
2022-12-26T09:30:01.118Z,102014.41
2022-12-26T09:32:34.433Z,102014.72
2022-12-26T09:35:03.018Z,102016.44
2022-12-26T09:37:31.429Z,102019.25
2022-12-26T09:39:59.796Z,102027.91
2022-12-26T09:42:38.420Z,102025.94
2022-12-26T09:45:13.273Z,101899.94
2022-12-26T09:47:53.276Z,102022.84
2022-12-26T09:50:28.722Z,102006.00
2022-12-26T09:53:00.785Z,102035.81
2022-12-26T09:55:38.609Z,102030.00
2022-12-26T09:58:16.257Z,102007.47
2022-12-26T10:00:51.943Z,102000.81
2022-12-26T10:03:23.412Z,102028.72
2022-12-26T10:06:03.300Z,102034.25
2022-12-26T10:09:02.970Z,102032.41
2022-12-26T10:11:41.966Z,102035.25
2022-12-26T10:14:21.707Z,102044.31
2022-12-26T10:16:57.970Z,102047.56
2022-12-26T10:19:40.066Z,102046.03
2022-12-26T10:22:24.087Z,102018.25
2022-12-26T10:24:53.603Z,102052.38
2022-12-26T10:27:23.707Z,102043.47
2022-12-26T10:29:56.823Z,102054.22
2022-12-26T10:32:31.090Z,102056.31
2022-12-26T10:35:02.535Z,102060.44
2022-12-26T10:37:38.189Z,102034.66
2022-12-26T10:40:18.541Z,102030.13
2022-12-26T10:42:51.587Z,101987.06
2022-12-26T10:45:29.049Z,101961.00
2022-12-26T10:47:57.766Z,102056.31
2022-12-26T10:50:30.148Z,102029.56
2022-12-26T10:53:00.069Z,102064.28
2022-12-26T10:55:34.468Z,102058.91
2022-12-26T10:58:08.078Z,102061.03
2022-12-26T11:00:36.641Z,102060.47
2022-12-26T11:03:08.049Z,102062.16
2022-12-26T11:06:06.563Z,102034.97
2022-12-26T11:08:43.031Z,102031.56
2022-12-26T11:11:15.726Z,102062.72
2022-12-26T11:13:50.756Z,102056.50
2022-12-26T11:16:26.865Z,102060.59
2022-12-26T11:18:55.500Z,102065.00
2022-12-26T11:21:27.992Z,102062.16
2022-12-26T11:24:17.714Z,101943.25
2022-12-26T11:26:46.171Z,102060.72
2022-12-26T11:29:16.878Z,102062.72
2022-12-26T11:31:54.184Z,102061.28
2022-12-26T11:34:32.676Z,102061.56
2022-12-26T11:37:03.265Z,102053.03
2022-12-26T11:39:36.248Z,102044.66
2022-12-26T11:42:11.396Z,102048.03
2022-12-26T11:44:45.142Z,102046.06
2022-12-26T11:47:15.655Z,102042.09
2022-12-26T11:49:53.374Z,102040.22
2022-12-26T11:52:51.931Z,102034.25
2022-12-26T11:55:33.626Z,102057.22
2022-12-26T11:58:12.837Z,102015.25
2022-12-26T12:00:43.264Z,102046.84
2022-12-26T12:03:15.335Z,102033.25
2022-12-26T12:05:51.838Z,102035.66
2022-12-26T12:08:33.023Z,101894.66
2022-12-26T12:11:20.561Z,102036.56
2022-12-26T12:14:14.073Z,102039.25
2022-12-26T12:16:54.451Z,102033.97
2022-12-26T12:19:33.539Z,102039.81
2022-12-26T12:22:18.979Z,102007.91
2022-12-26T12:25:01.966Z,102009.31
2022-12-26T12:27:33.312Z,102000.53
2022-12-26T12:30:19.200Z,102020.09
2022-12-26T12:33:12.113Z,102021.78
2022-12-26T12:35:55.101Z,102016.69
2022-12-26T12:38:31.274Z,102016.78
2022-12-26T12:41:10.415Z,102021.03
2022-12-26T12:43:44.984Z,101913.19
2022-12-26T12:46:24.118Z,101998.66
2022-12-26T12:49:18.667Z,102025.47
2022-12-26T12:51:55.483Z,101997.41
2022-12-26T12:54:46.901Z,102013.25
2022-12-26T12:57:24.420Z,101984.06
2022-12-26T13:00:04.902Z,102015.78
2022-12-26T13:02:39.574Z,101984.03
2022-12-26T13:05:19.789Z,102007.41
2022-12-26T13:07:53.112Z,102009.50
2022-12-26T13:10:26.377Z,101974.78
2022-12-26T13:12:57.544Z,102007.50
2022-12-26T13:15:32.655Z,102008.50
2022-12-26T13:18:06.509Z,102012.06
2022-12-26T13:20:41.838Z,101983.34
2022-12-26T13:23:38.502Z,102018.88
2022-12-26T13:26:12.609Z,101981.19
2022-12-26T13:29:00.533Z,102013.50
2022-12-26T13:31:34.156Z,102009.38
2022-12-26T13:34:03.328Z,102010.38
2022-12-26T13:36:37.668Z,102000.31
2022-12-26T13:39:32.532Z,102002.00
2022-12-26T13:42:22.393Z,102004.69
2022-12-26T13:44:53.708Z,102006.41
2022-12-26T13:47:37.147Z,102010.78
2022-12-26T13:50:42.680Z,102001.16
2022-12-26T13:53:30.044Z,101867.00
2022-12-26T13:56:12.732Z,101968.88
2022-12-26T13:58:56.718Z,101990.81
2022-12-26T14:01:40.251Z,101991.50
2022-12-26T14:04:41.800Z,101991.66
2022-12-26T14:07:23.213Z,101993.66
2022-12-26T14:10:04.672Z,101998.91
2022-12-26T14:12:44.615Z,101999.19
2022-12-26T14:15:40.411Z,101972.00
2022-12-26T14:18:25.473Z,101975.00
2022-12-26T14:21:11.249Z,101978.53
2022-12-26T14:23:47.336Z,101980.09
2022-12-26T14:26:30.020Z,101986.88
2022-12-26T14:29:05.574Z,101975.84
2022-12-26T14:31:44.958Z,102023.16
2022-12-26T14:34:28.919Z,101985.34
2022-12-26T14:37:05.394Z,102023.16
2022-12-26T14:39:40.113Z,101994.28
2022-12-26T14:42:59.735Z,102017.25
2022-12-26T14:45:46.628Z,101994.56
2022-12-26T14:48:55.669Z,102021.22
2022-12-26T14:51:40.452Z,102013.84
2022-12-26T14:54:37.585Z,102022.34
2022-12-26T14:57:54.160Z,102021.78
2022-12-26T15:00:45.410Z,101995.19
2022-12-26T15:03:35.266Z,102002.13
2022-12-26T15:06:29.800Z,102025.06
2022-12-26T15:09:20.633Z,102025.19
2022-12-26T15:12:28.800Z,101894.97
2022-12-26T15:15:27.430Z,102002.16
2022-12-26T15:18:27.241Z,101996.91
2022-12-26T15:21:20.015Z,102024.53
2022-12-26T15:25:08.719Z,102029.38
2022-12-26T15:27:46.015Z,102035.34
2022-12-26T15:30:23.072Z,102040.88
2022-12-26T15:33:00.350Z,102038.31
2022-12-26T15:35:34.901Z,102032.22
2022-12-26T15:38:16.647Z,102044.13
2022-12-26T15:40:53.439Z,102036.75
2022-12-26T15:43:36.371Z,101907.72
2022-12-26T15:46:14.480Z,102038.78
2022-12-26T15:48:54.024Z,102043.03
2022-12-26T15:51:34.415Z,102044.44
2022-12-26T15:54:20.506Z,102044.59
2022-12-26T15:56:57.637Z,102009.41
2022-12-26T15:59:49.934Z,102019.03
2022-12-26T16:02:34.654Z,102053.31
2022-12-26T16:05:25.792Z,102057.25
2022-12-26T16:07:59.872Z,102057.66
2022-12-26T16:10:31.982Z,102054.22
2022-12-26T16:13:07.227Z,102040.72
2022-12-26T16:16:05.798Z,102057.88
2022-12-26T16:18:42.519Z,102069.56
2022-12-26T16:21:31.844Z,102071.66
2022-12-26T16:24:00.206Z,102074.16
2022-12-26T16:26:33.356Z,102044.78
2022-12-26T16:29:03.360Z,102082.13
2022-12-26T16:31:32.371Z,102083.59
2022-12-26T16:34:01.694Z,102077.41
2022-12-26T16:36:36.040Z,102063.84
2022-12-26T16:39:10.551Z,102094.56
2022-12-26T16:42:04.053Z,101949.44
2022-12-26T16:44:38.349Z,102091.47
2022-12-26T16:47:12.819Z,102104.28
2022-12-26T16:49:43.634Z,102102.84
2022-12-26T16:52:33.154Z,102070.00
2022-12-26T16:55:26.815Z,102107.28
2022-12-26T16:57:57.794Z,102100.88
2022-12-26T17:00:28.871Z,102094.56
2022-12-26T17:03:00.864Z,102095.91
2022-12-26T17:05:32.751Z,102094.81
2022-12-26T17:08:03.558Z,102096.94
2022-12-26T17:10:34.008Z,102100.81
2022-12-26T17:13:06.618Z,102067.44
2022-12-26T17:15:39.120Z,102060.59
2022-12-26T17:18:32.797Z,102104.59
2022-12-26T17:21:18.212Z,102002.88
2022-12-26T17:23:47.422Z,102107.03
2022-12-26T17:26:24.908Z,102112.13
2022-12-26T17:28:53.742Z,102057.94
2022-12-26T17:31:32.732Z,102069.72
2022-12-26T17:34:07.883Z,102071.94
2022-12-26T17:37:17.312Z,102104.81
2022-12-26T17:39:26.545Z,102118.22
2022-12-26T17:41:57.038Z,102117.34
2022-12-26T17:44:40.398Z,102124.66
2022-12-26T17:47:19.060Z,102133.72
2022-12-26T17:49:51.319Z,102127.34
2022-12-26T17:52:21.941Z,101993.84
2022-12-26T17:54:51.012Z,102135.59
2022-12-26T17:57:22.070Z,102129.84
2022-12-26T17:59:51.989Z,101989.22
2022-12-26T18:02:21.936Z,102129.00
2022-12-26T18:04:51.275Z,102107.50
2022-12-26T18:07:30.835Z,102132.13
2022-12-26T18:10:00.573Z,102136.63
2022-12-26T18:12:29.065Z,102140.03
2022-12-26T18:15:01.736Z,102137.47
2022-12-26T18:17:34.571Z,102106.34
2022-12-26T18:20:03.848Z,102139.78
2022-12-26T18:22:32.228Z,102145.59
2022-12-26T18:25:00.719Z,102145.59
2022-12-26T18:27:31.962Z,102142.06
2022-12-26T18:30:01.155Z,102150.63
2022-12-26T18:32:32.499Z,102152.91
2022-12-26T18:35:01.797Z,102164.56
2022-12-26T18:37:31.471Z,102159.97
2022-12-26T18:39:59.938Z,102156.84
2022-12-26T18:42:28.226Z,102155.34
2022-12-26T18:44:56.705Z,102151.53
2022-12-26T18:47:25.237Z,102163.41
2022-12-26T18:49:55.901Z,102158.91
2022-12-26T18:52:26.233Z,102155.50
2022-12-26T18:54:55.682Z,102163.84
2022-12-26T18:57:24.163Z,102162.69
2022-12-26T18:59:53.410Z,102164.72
2022-12-26T19:02:23.361Z,102166.78
2022-12-26T19:04:54.402Z,102173.31
2022-12-26T19:07:22.763Z,102183.69
2022-12-26T19:09:55.143Z,102181.03
2022-12-26T19:12:24.102Z,102189.38
2022-12-26T19:14:53.039Z,102191.28
2022-12-26T19:17:21.882Z,102195.34
2022-12-26T19:19:50.518Z,102189.38
2022-12-26T19:22:20.319Z,102189.03
2022-12-26T19:24:48.666Z,102187.22
2022-12-26T19:27:17.134Z,102193.84
2022-12-26T19:29:45.618Z,102182.53
2022-12-26T19:32:14.045Z,102197.91
2022-12-26T19:34:42.562Z,102201.88
2022-12-26T19:37:12.210Z,102188.00
2022-12-26T19:39:42.177Z,102204.34
2022-12-26T19:42:10.675Z,102202.00
2022-12-26T19:44:39.036Z,102188.94
2022-12-26T19:47:12.124Z,102204.66
2022-12-26T19:49:41.618Z,102201.03
2022-12-26T19:52:10.146Z,102198.56
2022-12-26T19:54:38.795Z,102206.16
2022-12-26T19:57:08.647Z,102211.84
2022-12-26T19:59:37.213Z,102210.00
2022-12-26T20:02:06.088Z,102199.16
2022-12-26T20:04:34.631Z,102204.50
2022-12-26T20:07:02.933Z,102211.03
2022-12-26T20:09:31.433Z,102220.53
2022-12-26T20:11:59.746Z,102219.63
2022-12-26T20:14:32.724Z,102188.72
2022-12-26T20:17:07.227Z,102227.97
2022-12-26T20:19:37.201Z,102234.47
2022-12-26T20:22:07.088Z,102225.91
2022-12-26T20:24:35.983Z,102226.16
2022-12-26T20:27:05.621Z,102227.09
2022-12-26T20:29:35.583Z,102232.75
2022-12-26T20:32:03.977Z,102239.63
2022-12-26T20:34:32.447Z,102231.72
2022-12-26T20:37:00.928Z,102240.69
2022-12-26T20:39:29.368Z,102246.00
2022-12-26T20:41:57.698Z,102245.13
2022-12-26T20:44:26.057Z,102246.88
2022-12-26T20:46:55.770Z,102241.78
2022-12-26T20:49:24.180Z,102240.94
2022-12-26T20:51:52.561Z,102247.13
2022-12-26T20:54:21.435Z,102261.13
2022-12-26T20:56:49.833Z,102252.13
2022-12-26T20:59:18.554Z,102248.50
2022-12-26T21:01:48.571Z,102258.13
2022-12-26T21:04:23.314Z,102256.03
2022-12-26T21:06:56.521Z,102264.53
2022-12-26T21:09:30.885Z,102266.44
2022-12-26T21:12:03.236Z,102272.63
2022-12-26T21:14:37.900Z,102271.09
2022-12-26T21:17:12.159Z,102268.53
2022-12-26T21:19:49.807Z,102279.19
2022-12-26T21:22:20.384Z,102167.19
2022-12-26T21:24:49.712Z,102262.06
2022-12-26T21:27:18.878Z,102269.28
2022-12-26T21:29:47.437Z,102265.31
2022-12-26T21:32:15.779Z,102262.84
2022-12-26T21:34:45.756Z,102268.19
2022-12-26T21:37:31.371Z,102272.75
2022-12-26T21:40:00.047Z,102272.38
2022-12-26T21:42:29.403Z,102273.22
2022-12-26T21:44:57.951Z,102267.22
2022-12-26T21:47:26.327Z,102271.88
2022-12-26T21:49:56.145Z,102271.41
2022-12-26T21:52:24.691Z,102273.03
2022-12-26T21:55:10.439Z,102274.84
2022-12-26T21:57:39.269Z,102267.03
2022-12-26T22:00:09.630Z,102111.75
2022-12-26T22:02:57.585Z,102277.13
2022-12-26T22:05:29.575Z,102278.19
2022-12-26T22:07:59.993Z,102216.59
2022-12-26T22:10:49.113Z,102237.84
2022-12-26T22:13:18.020Z,102274.00
2022-12-26T22:16:07.513Z,102237.06
2022-12-26T22:18:43.426Z,102276.94
2022-12-26T22:21:15.632Z,102249.16
2022-12-26T22:23:50.556Z,102300.44
2022-12-26T22:26:21.503Z,102297.34
2022-12-26T22:28:52.154Z,102302.56
2022-12-26T22:31:24.994Z,102267.03
2022-12-26T22:33:56.894Z,102302.25
2022-12-26T22:36:33.661Z,102297.78
2022-12-26T22:39:02.356Z,102300.00
2022-12-26T22:41:38.783Z,102285.31
2022-12-26T22:44:08.281Z,102293.69
2022-12-26T22:46:36.998Z,102290.44
2022-12-26T22:49:06.456Z,102294.47
2022-12-26T22:51:36.202Z,102293.97
2022-12-26T22:54:05.781Z,102294.22
2022-12-26T22:56:34.505Z,102293.00
2022-12-26T22:59:03.223Z,102293.69
2022-12-26T23:01:41.784Z,102295.78
2022-12-26T23:04:12.289Z,102293.75
2022-12-26T23:06:42.761Z,102300.59
2022-12-26T23:09:15.142Z,102267.03
2022-12-26T23:12:06.861Z,102298.09
2022-12-26T23:14:35.971Z,102294.56
2022-12-26T23:17:08.921Z,102289.94
2022-12-26T23:20:08.785Z,102265.06
2022-12-26T23:22:39.092Z,102298.19
2022-12-26T23:25:07.953Z,102300.00
2022-12-26T23:27:53.382Z,102302.56
2022-12-26T23:30:21.769Z,102301.78
2022-12-26T23:32:52.066Z,102302.75
2022-12-26T23:35:22.621Z,102317.94
2022-12-26T23:37:53.831Z,102313.16
2022-12-26T23:40:23.032Z,102320.38
2022-12-26T23:42:51.458Z,102325.69
2022-12-26T23:45:20.029Z,102321.41
2022-12-26T23:47:48.574Z,102319.59
2022-12-26T23:50:18.078Z,102309.91
2022-12-26T23:52:46.668Z,102312.28
2022-12-26T23:55:16.516Z,102315.91
2022-12-26T23:57:45.886Z,102314.75
